Time;durP1;ratioP1;P1;durP2;ratioP2;P2;SDS_P1;SDS_P2;PMS_P1;PMS_P2;Temp;Humidity;BMP_temperature;BMP_pressure;BME280_temperature;BME280_humidity;BME280_pressure;Samples;Min_cycle;Max_cycle;Signal;HPM_P1;HPM_P2
2022/09/17 00:02:14;;;;;;;3.70;2.33;;;;;;;19.98;53.14;92659.06;4994027;28;20458;-85
2022/09/17 00:04:39;;;;;;;3.45;1.70;;;;;;;19.95;53.04;92658.13;4994269;28;20487;-84
2022/09/17 00:07:04;;;;;;;3.60;1.88;;;;;;;19.95;53.05;92663.63;4993389;28;20041;-84
2022/09/17 00:09:30;;;;;;;2.88;1.80;;;;;;;19.96;53.25;92659.59;5027147;28;20060;-85
2022/09/17 00:11:55;;;;;;;2.40;1.67;;;;;;;19.99;53.17;92655.06;4994048;28;20478;-87
2022/09/17 00:14:21;;;;;;;3.88;1.90;;;;;;;19.99;53.35;92653.03;5026595;28;20034;-86
2022/09/17 00:16:46;;;;;;;2.03;1.65;;;;;;;19.97;53.00;92647.34;5009509;28;20034;-87
2022/09/17 00:19:18;;;;;;;2.03;1.45;;;;;;;19.96;53.09;92654.13;4998179;28;20492;-85
2022/09/17 00:21:44;;;;;;;3.88;2.17;;;;;;;19.95;53.09;92655.41;4994686;28;20037;-86
2022/09/17 00:24:10;;;;;;;2.78;1.80;;;;;;;19.97;53.24;92657.59;4994007;28;20046;-86
2022/09/17 00:26:35;;;;;;;1.90;1.63;;;;;;;19.94;53.23;92642.22;4977608;28;20527;-85
2022/09/17 00:29:01;;;;;;;2.78;1.70;;;;;;;19.97;53.11;92650.09;4993785;28;20030;-84
2022/09/17 00:31:27;;;;;;;2.70;1.92;;;;;;;19.98;53.03;92651.56;4992570;28;20585;-86
2022/09/17 00:33:52;;;;;;;3.03;2.05;;;;;;;19.98;53.07;92656.31;4977408;28;20495;-84
2022/09/17 00:36:19;;;;;;;2.53;1.92;;;;;;;19.99;53.15;92655.78;4976398;28;20041;-85
2022/09/17 00:38:48;;;;;;;3.75;2.13;;;;;;;19.95;53.00;92652.66;4977663;28;20033;-84
2022/09/17 00:41:13;;;;;;;2.95;1.90;;;;;;;19.99;52.80;92655.78;4993651;28;20029;-84
2022/09/17 00:43:40;;;;;;;3.28;1.92;;;;;;;19.96;53.08;92651.38;4997927;28;20029;-85
2022/09/17 00:46:19;;;;;;;2.55;1.90;;;;;;;19.94;53.25;92653.19;4992805;28;20125;-85
2022/09/17 00:48:45;;;;;;;2.75;1.98;;;;;;;19.96;53.13;92650.63;4992806;28;20510;-85
2022/09/17 00:51:10;;;;;;;3.58;1.92;;;;;;;19.93;53.24;92638.72;5004483;28;20037;-85
2022/09/17 00:53:36;;;;;;;2.70;1.90;;;;;;;19.94;53.33;92637.47;4977173;28;20038;-85
2022/09/17 00:56:18;;;;;;;3.03;1.95;;;;;;;19.94;53.32;92648.44;4976748;28;20458;-85
2022/09/17 00:58:44;;;;;;;2.55;1.90;;;;;;;19.94;53.15;92645.69;4999956;28;20391;-85
2022/09/17 01:01:09;;;;;;;2.58;1.90;;;;;;;19.94;53.32;92647.69;4992747;28;20029;-85
2022/09/17 01:03:35;;;;;;;2.85;1.63;;;;;;;19.92;53.17;92653.00;4993344;28;20056;-84
2022/09/17 01:06:19;;;;;;;2.58;1.90;;;;;;;19.94;53.24;92644.94;4992892;28;20037;-85
2022/09/17 01:09:04;;;;;;;3.65;1.95;;;;;;;19.93;53.63;92641.47;5026709;28;20045;-84
2022/09/17 01:11:43;;;;;;;4.63;2.00;;;;;;;19.94;52.97;92648.44;5025538;28;20037;-85
2022/09/17 01:14:34;;;;;;;3.65;1.98;;;;;;;19.94;53.25;92642.22;5009098;28;20038;-84
2022/09/17 01:17:09;;;;;;;2.40;1.70;;;;;;;19.93;53.31;92646.22;5000915;28;20049;-85
2022/09/17 01:19:56;;;;;;;3.20;1.73;;;;;;;19.92;53.40;92648.22;4975433;28;20530;-85
2022/09/17 01:22:45;;;;;;;3.35;1.70;;;;;;;19.92;53.14;92653.72;5006755;28;20508;-85
2022/09/17 01:25:19;;;;;;;2.22;1.48;;;;;;;19.91;53.08;92651.53;4975821;28;20111;-85
2022/09/17 01:28:02;;;;;;;2.80;1.92;;;;;;;19.91;53.43;92652.28;5009117;28;20486;-85
2022/09/17 01:30:27;;;;;;;2.78;1.85;;;;;;;19.94;53.18;92648.44;5024695;28;20121;-85
2022/09/17 01:33:07;;;;;;;4.22;1.95;;;;;;;19.92;53.15;92639.31;5026447;28;20128;-84
2022/09/17 01:35:37;;;;;;;2.20;1.60;;;;;;;19.94;53.05;92640.19;5019298;28;20048;-84
2022/09/17 01:38:27;;;;;;;2.72;1.83;;;;;;;19.92;53.34;92637.25;5008900;28;20373;-87
2022/09/17 01:40:59;;;;;;;2.70;2.10;;;;;;;19.91;53.34;92632.34;5026725;28;20037;-85
2022/09/17 01:43:39;;;;;;;2.17;1.65;;;;;;;19.91;53.35;92633.06;5005023;28;20563;-86
2022/09/17 01:46:15;;;;;;;2.35;1.63;;;;;;;19.92;53.11;92622.84;5024048;28;20522;-85
2022/09/17 01:48:43;;;;;;;2.30;1.70;;;;;;;19.90;53.29;92637.09;5014432;28;20111;-87
2022/09/17 01:51:22;;;;;;;3.53;1.90;;;;;;;19.92;53.17;92636.56;5003627;28;20041;-85
2022/09/17 01:53:53;;;;;;;2.38;1.90;;;;;;;19.90;53.15;92645.31;4976589;28;20049;-86
2022/09/17 01:56:23;;;;;;;3.03;2.22;;;;;;;19.90;53.08;92631.59;4972827;28;20033;-85
2022/09/17 01:58:52;;;;;;;3.58;1.90;;;;;;;19.93;53.36;92624.28;4994357;28;20188;-86
2022/09/17 02:01:18;;;;;;;3.58;2.50;;;;;;;19.91;53.11;92632.34;4995464;28;20049;-85
2022/09/17 02:04:10;;;;;;;3.08;2.05;;;;;;;19.91;53.27;92624.13;5025621;28;20491;-84
2022/09/17 02:06:37;;;;;;;2.53;1.80;;;;;;;19.91;53.27;92624.84;4979069;28;20029;-85
2022/09/17 02:09:23;;;;;;;2.20;1.90;;;;;;;19.90;53.25;92628.13;5007983;28;20041;-86
2022/09/17 02:11:51;;;;;;;3.33;1.88;;;;;;;19.90;53.31;92623.38;5008621;28;20042;-84
2022/09/17 02:14:20;;;;;;;2.30;1.80;;;;;;;19.91;53.21;92622.09;5008317;28;20041;-85
2022/09/17 02:16:49;;;;;;;3.22;2.08;;;;;;;19.89;53.16;92610.94;4994356;28;20163;-84
2022/09/17 02:19:18;;;;;;;3.63;2.10;;;;;;;19.89;53.17;92616.41;4979738;28;20038;-85
2022/09/17 02:22:01;;;;;;;2.80;1.90;;;;;;;19.91;53.27;92624.13;4979883;28;20060;-85
2022/09/17 02:24:48;;;;;;;2.42;1.70;;;;;;;19.90;53.37;92622.63;5011876;28;20536;-85
2022/09/17 02:27:25;;;;;;;2.10;1.50;;;;;;;19.90;53.29;92625.38;4995723;28;20540;-85
2022/09/17 02:29:51;;;;;;;2.90;1.48;;;;;;;19.89;53.09;92627.41;4999261;28;20169;-86
2022/09/17 02:32:16;;;;;;;3.33;1.45;;;;;;;19.91;53.26;92622.09;5003791;28;20399;-85
2022/09/17 02:34:41;;;;;;;3.22;1.90;;;;;;;19.89;53.33;92619.16;4985095;28;20049;-86
2022/09/17 02:37:07;;;;;;;3.00;2.00;;;;;;;19.90;53.34;92608.94;4994668;28;20038;-86
2022/09/17 02:39:32;;;;;;;2.55;1.92;;;;;;;19.92;53.29;92617.34;4995787;28;20037;-85
2022/09/17 02:42:11;;;;;;;2.80;1.80;;;;;;;19.88;53.41;92614.94;4995858;28;20037;-85
2022/09/17 02:45:06;;;;;;;3.00;1.50;;;;;;;19.89;53.39;92616.41;5004318;28;20045;-85
2022/09/17 02:47:43;;;;;;;2.65;1.88;;;;;;;19.89;53.57;92599.97;4976126;28;20511;-86
2022/09/17 02:50:29;;;;;;;2.40;1.65;;;;;;;19.88;53.26;92606.72;5006650;28;20053;-84
2022/09/17 02:52:54;;;;;;;2.90;2.00;;;;;;;19.89;53.21;92602.72;4996079;28;20040;-87
2022/09/17 02:55:45;;;;;;;2.40;1.58;;;;;;;19.90;53.28;92590.47;5028727;28;20037;-85
2022/09/17 02:58:16;;;;;;;2.63;1.85;;;;;;;19.91;53.57;92591.19;5006470;28;20037;-87
2022/09/17 03:00:42;;;;;;;2.22;1.70;;;;;;;19.88;52.91;92576.56;5029382;28;20504;-86
2022/09/17 03:03:11;;;;;;;3.15;2.03;;;;;;;19.90;53.07;92576.75;5011636;28;20069;-86
2022/09/17 03:05:36;;;;;;;2.88;1.90;;;;;;;19.90;53.09;92567.78;4995655;28;20068;-84
2022/09/17 03:08:02;;;;;;;4.47;2.15;;;;;;;19.88;53.09;92576.56;5008441;28;20041;-85
2022/09/17 03:10:29;;;;;;;3.42;1.70;;;;;;;19.88;53.15;92575.81;4999767;28;20034;-85
2022/09/17 03:12:55;;;;;;;2.30;1.33;;;;;;;19.88;53.30;92584.03;4995876;28;20038;-85
2022/09/17 03:15:20;;;;;;;1.90;1.50;;;;;;;19.87;53.20;92566.84;4994953;28;20040;-86
2022/09/17 03:17:45;;;;;;;2.72;1.50;;;;;;;19.88;53.20;92573.81;4995047;28;20038;-85
2022/09/17 03:20:11;;;;;;;2.47;1.60;;;;;;;19.90;53.22;92567.78;4997478;28;20044;-86
2022/09/17 03:22:36;;;;;;;5.13;2.13;;;;;;;19.88;52.87;92564.84;4975558;28;20416;-85
2022/09/17 03:25:02;;;;;;;3.38;2.25;;;;;;;19.88;53.18;92567.59;4995379;28;20446;-85
2022/09/17 03:27:27;;;;;;;2.47;1.58;;;;;;;19.88;53.10;92573.81;4991014;28;20037;-86
2022/09/17 03:29:52;;;;;;;2.90;1.83;;;;;;;19.90;53.02;92570.53;5011380;28;20045;-85
2022/09/17 03:32:18;;;;;;;2.53;1.70;;;;;;;19.85;53.08;92570.13;4988697;28;20532;-84
2022/09/17 03:34:45;;;;;;;3.25;2.05;;;;;;;19.88;53.20;92589.53;5021885;28;20507;-87
2022/09/17 03:37:11;;;;;;;2.53;1.73;;;;;;;19.86;53.12;92579.09;4991164;28;20061;-85
2022/09/17 03:39:36;;;;;;;1.67;1.27;;;;;;;19.87;52.98;92583.31;4993289;28;20488;-84
2022/09/17 03:42:01;;;;;;;1.90;1.40;;;;;;;19.85;53.33;92589.34;4994641;28;20103;-85
2022/09/17 03:44:28;;;;;;;2.67;1.65;;;;;;;19.87;53.37;92599.03;4970692;28;20030;-85
2022/09/17 03:46:53;;;;;;;2.88;1.55;;;;;;;19.87;53.26;92597.03;4974482;28;20476;-85
2022/09/17 03:49:19;;;;;;;2.83;1.90;;;;;;;19.85;53.21;92616.75;4972965;28;20038;-85
2022/09/17 03:51:44;;;;;;;2.00;1.40;;;;;;;19.85;53.19;92616.75;4955991;28;20038;-85
2022/09/17 03:54:09;;;;;;;3.15;1.70;;;;;;;19.88;53.09;92606.00;4953953;28;20031;-85
2022/09/17 03:56:35;;;;;;;2.50;1.63;;;;;;;19.85;53.23;92591.34;4959940;28;20042;-85
2022/09/17 03:59:00;;;;;;;2.50;1.83;;;;;;;19.86;53.18;92576.34;4951044;28;20401;-86
2022/09/17 04:01:26;;;;;;;3.03;1.42;;;;;;;19.88;53.01;92576.56;4969537;28;20042;-85
2022/09/17 04:03:51;;;;;;;2.58;1.75;;;;;;;19.84;53.46;92576.16;4936471;28;20042;-86
2022/09/17 04:06:17;;;;;;;4.25;1.98;;;;;;;19.85;53.11;92572.16;4970509;28;20060;-86
2022/09/17 04:08:42;;;;;;;1.90;1.30;;;;;;;19.85;53.21;92577.63;4964083;28;20469;-86
2022/09/17 04:11:08;;;;;;;1.88;1.30;;;;;;;19.85;53.18;92592.06;4950366;28;20480;-86
2022/09/17 04:13:34;;;;;;;2.10;1.30;;;;;;;19.86;53.05;92606.53;4950404;28;20042;-85
2022/09/17 04:15:59;;;;;;;2.10;1.55;;;;;;;19.86;53.09;92612.00;4947689;28;20415;-85
2022/09/17 04:18:25;;;;;;;1.67;1.42;;;;;;;19.85;52.99;92591.34;5004371;28;20107;-86
2022/09/17 04:20:50;;;;;;;3.13;1.63;;;;;;;19.84;52.87;92584.38;4994074;28;20038;-86
2022/09/17 04:23:16;;;;;;;1.90;1.50;;;;;;;19.86;52.98;92584.59;4993418;28;20582;-85
2022/09/17 04:25:41;;;;;;;2.95;1.63;;;;;;;19.84;52.89;92590.59;4993857;28;20465;-85
2022/09/17 04:28:07;;;;;;;2.00;1.20;;;;;;;19.84;52.80;92582.38;5010246;28;20037;-84
2022/09/17 04:30:32;;;;;;;1.80;1.35;;;;;;;19.84;52.96;92576.16;4993902;28;20072;-85
2022/09/17 04:32:58;;;;;;;2.05;1.30;;;;;;;19.83;52.79;92582.91;5008891;28;20041;-85
2022/09/17 04:35:23;;;;;;;2.92;1.98;;;;;;;19.84;52.81;92589.88;4997237;28;20048;-85
2022/09/17 04:37:54;;;;;;;2.50;1.77;;;;;;;19.84;52.89;92582.38;4983338;28;20080;-85
2022/09/17 04:40:20;;;;;;;2.83;1.40;;;;;;;19.85;53.05;92589.34;4975767;28;20456;-84
2022/09/17 04:42:46;;;;;;;2.50;1.30;;;;;;;19.83;53.06;92591.16;4992165;28;20115;-85
2022/09/17 04:45:11;;;;;;;1.70;1.40;;;;;;;19.82;53.14;92608.88;5008038;28;20143;-85
2022/09/17 04:47:39;;;;;;;1.83;1.08;;;;;;;19.81;53.06;92602.66;5010054;28;20057;-85
2022/09/17 04:50:05;;;;;;;1.77;1.10;;;;;;;19.83;53.39;92616.56;4992850;28;20037;-85
2022/09/17 04:52:31;;;;;;;1.98;1.30;;;;;;;19.83;53.14;92613.09;4976199;28;20090;-85
2022/09/17 04:54:56;;;;;;;1.95;1.33;;;;;;;19.83;52.83;92632.28;4977461;28;20052;-85
2022/09/17 04:57:24;;;;;;;2.33;1.40;;;;;;;19.83;53.04;92629.53;5016905;28;20045;-85
2022/09/17 04:59:49;;;;;;;2.85;1.88;;;;;;;19.83;53.13;92629.53;4982288;28;20042;-85
2022/09/17 05:02:15;;;;;;;2.17;1.40;;;;;;;19.81;53.13;92640.31;5008476;28;20087;-85
2022/09/17 05:04:40;;;;;;;2.35;1.55;;;;;;;19.82;53.00;92641.78;4988139;28;20507;-84
2022/09/17 05:07:06;;;;;;;2.25;1.60;;;;;;;19.81;53.00;92654.75;4955866;28;20045;-86
2022/09/17 05:09:31;;;;;;;2.45;1.30;;;;;;;19.81;53.18;92643.78;4964201;28;20551;-85
2022/09/17 05:11:56;;;;;;;3.47;1.42;;;;;;;19.79;52.76;92643.59;4956183;28;20126;-85
2022/09/17 05:14:22;;;;;;;2.00;1.10;;;;;;;19.80;53.11;92645.06;4987393;28;20049;-87
2022/09/17 05:16:47;;;;;;;1.60;1.40;;;;;;;19.82;52.74;92652.75;5005261;28;20400;-85
2022/09/17 05:19:13;;;;;;;1.77;1.45;;;;;;;19.80;52.74;92647.06;4971633;28;20050;-85
2022/09/17 05:21:38;;;;;;;2.28;1.30;;;;;;;19.81;53.06;92660.25;4984609;28;20038;-85
2022/09/17 05:24:03;;;;;;;2.13;1.25;;;;;;;19.80;52.95;92653.28;4987198;28;20046;-85
2022/09/17 05:26:29;;;;;;;4.45;1.45;;;;;;;19.81;52.78;92649.28;4971772;28;20404;-85
2022/09/17 05:28:54;;;;;;;1.63;1.08;;;;;;;19.80;52.88;92653.28;4988438;28;20034;-85
2022/09/17 05:31:20;;;;;;;2.50;1.50;;;;;;;19.81;53.13;92657.50;4987259;28;20038;-86
2022/09/17 05:33:45;;;;;;;1.98;1.20;;;;;;;19.82;52.67;92664.47;4954847;28;20041;-85
2022/09/17 05:36:10;;;;;;;3.50;1.60;;;;;;;19.83;52.55;92665.19;4985654;28;20258;-85
2022/09/17 05:38:36;;;;;;;3.05;1.38;;;;;;;19.80;52.73;92652.56;4992844;28;20025;-85
2022/09/17 05:41:05;;;;;;;1.95;1.40;;;;;;;19.82;52.88;92660.97;4973269;28;20033;-85
2022/09/17 05:43:31;;;;;;;2.13;1.30;;;;;;;19.81;52.73;92663.00;4984133;28;20057;-85
2022/09/17 05:46:04;;;;;;;2.47;1.35;;;;;;;19.84;52.77;92664.66;5008705;28;20451;-86
2022/09/17 05:48:30;;;;;;;2.50;1.35;;;;;;;19.83;52.68;92652.22;5024993;28;20035;-86
2022/09/17 05:50:55;;;;;;;2.30;1.30;;;;;;;19.81;52.72;92667.75;5022113;28;20037;-87
2022/09/17 05:53:20;;;;;;;2.03;1.20;;;;;;;19.82;52.88;92666.47;4993976;28;20036;-85
2022/09/17 05:55:46;;;;;;;2.45;1.50;;;;;;;19.82;52.76;92677.44;4992137;28;20033;-84
2022/09/17 05:58:15;;;;;;;2.50;1.30;;;;;;;19.81;52.88;92673.97;4995972;28;20045;-86
2022/09/17 06:00:41;;;;;;;1.95;1.50;;;;;;;19.82;52.78;92666.47;4992980;28;20125;-85
2022/09/17 06:03:09;;;;;;;3.05;1.60;;;;;;;19.82;52.69;92680.19;4976102;28;20030;-85
2022/09/17 06:05:35;;;;;;;2.22;1.40;;;;;;;19.83;52.63;92682.38;4976327;28;20042;-85
2022/09/17 06:08:00;;;;;;;2.53;1.40;;;;;;;19.81;52.82;92684.19;4976387;28;20037;-85
2022/09/17 06:10:26;;;;;;;3.10;1.20;;;;;;;19.80;53.02;92685.47;4987979;28;20037;-85
2022/09/17 06:12:57;;;;;;;1.85;1.20;;;;;;;19.80;52.96;92683.47;5008718;28;20507;-86
2022/09/17 06:15:23;;;;;;;2.10;1.17;;;;;;;19.80;53.05;92699.19;4991843;28;20038;-86
2022/09/17 06:17:49;;;;;;;2.83;1.40;;;;;;;19.80;52.89;92699.19;4975995;28;20083;-85
2022/09/17 06:20:15;;;;;;;1.95;1.10;;;;;;;19.80;52.95;92693.69;4992304;28;20048;-85
2022/09/17 06:22:41;;;;;;;3.97;1.52;;;;;;;19.82;52.60;92686.41;4992406;28;20455;-85
2022/09/17 06:25:06;;;;;;;1.92;1.42;;;;;;;19.81;52.79;92684.19;5010466;28;20045;-85
2022/09/17 06:27:32;;;;;;;1.83;1.23;;;;;;;19.80;52.61;92683.47;4992667;28;20076;-85
2022/09/17 06:29:58;;;;;;;1.25;1.10;;;;;;;19.80;52.51;92688.22;5025220;28;20050;-85
2022/09/17 06:32:24;;;;;;;2.60;1.40;;;;;;;19.81;52.60;92676.69;5007708;28;20053;-85
2022/09/17 06:34:49;;;;;;;1.80;1.13;;;;;;;19.82;52.54;92680.19;4975944;28;20037;-85
2022/09/17 06:37:15;;;;;;;1.33;1.13;;;;;;;19.83;52.55;92678.91;4991821;28;20038;-86
2022/09/17 06:39:40;;;;;;;2.35;1.27;;;;;;;19.83;52.75;92695.38;5008538;28;20041;-86
2022/09/17 06:42:06;;;;;;;2.03;1.42;;;;;;;19.80;52.37;92685.47;5007877;28;20038;-86
2022/09/17 06:44:31;;;;;;;2.42;1.20;;;;;;;19.81;52.55;92695.91;5002587;28;20080;-86
2022/09/17 06:46:57;;;;;;;2.50;1.63;;;;;;;19.81;52.91;92692.44;5004468;28;20044;-86
2022/09/17 06:49:23;;;;;;;2.75;1.23;;;;;;;19.79;52.49;92681.25;4982567;28;20053;-85
2022/09/17 06:51:48;;;;;;;2.35;1.40;;;;;;;19.81;52.56;92698.66;4988984;28;20064;-86
2022/09/17 06:54:14;;;;;;;1.88;1.30;;;;;;;19.80;52.67;92696.44;4974574;28;20519;-85
2022/09/17 06:56:39;;;;;;;3.28;1.33;;;;;;;19.80;52.66;92677.25;4991912;28;20045;-85
2022/09/17 06:59:04;;;;;;;2.35;1.40;;;;;;;19.81;52.59;92671.22;4991061;28;20033;-86
2022/09/17 07:01:30;;;;;;;2.67;1.70;;;;;;;19.81;52.76;92665.00;4975914;28;20025;-86
2022/09/17 07:03:55;;;;;;;3.55;1.40;;;;;;;19.78;52.70;92661.31;4991363;28;20083;-86
2022/09/17 07:06:21;;;;;;;2.50;1.35;;;;;;;19.78;52.79;92641.38;5010469;28;20030;-85
2022/09/17 07:08:46;;;;;;;2.83;1.20;;;;;;;19.79;52.50;92624.41;5004196;28;20112;-85
2022/09/17 07:11:12;;;;;;;2.72;1.23;;;;;;;19.79;52.49;92607.19;4993985;28;20616;-85
2022/09/17 07:13:37;;;;;;;1.83;1.17;;;;;;;19.80;52.44;92598.44;4994886;28;20052;-85
2022/09/17 07:16:04;;;;;;;1.92;1.10;;;;;;;19.79;52.56;92596.97;4990772;28;20286;-86
2022/09/17 07:18:29;;;;;;;1.88;0.88;;;;;;;19.78;52.82;92614.69;5011168;28;20051;-86
2022/09/17 07:20:55;;;;;;;2.55;1.30;;;;;;;19.80;52.37;92627.88;4975095;28;20038;-86
2022/09/17 07:23:23;;;;;;;2.20;1.20;;;;;;;19.80;52.47;92645.06;4993509;28;20041;-85
2022/09/17 07:25:53;;;;;;;2.42;1.20;;;;;;;19.78;52.65;92664.06;4994006;28;20099;-86
2022/09/17 07:28:18;;;;;;;2.53;1.30;;;;;;;19.81;52.65;92654.75;4987051;28;20041;-85
2022/09/17 07:30:44;;;;;;;2.85;1.05;;;;;;;19.80;52.36;92675.22;4992087;28;20728;-85
2022/09/17 07:33:09;;;;;;;5.40;1.20;;;;;;;19.83;52.70;92673.44;4991862;28;20045;-86
2022/09/17 07:35:35;;;;;;;5.85;1.42;;;;;;;19.82;52.36;92669.22;4993577;28;20545;-86
2022/09/17 07:38:00;;;;;;;1.90;1.13;;;;;;;19.82;52.61;92658.25;5010530;28;20037;-86
2022/09/17 07:40:25;;;;;;;2.45;1.20;;;;;;;19.78;52.51;92655.84;4988519;28;20044;-85
2022/09/17 07:42:53;;;;;;;1.50;1.02;;;;;;;19.79;52.62;92660.06;4991319;28;20034;-85
2022/09/17 07:45:18;;;;;;;3.38;1.23;;;;;;;19.82;52.73;92677.44;4982319;28;20041;-85
2022/09/17 07:47:43;;;;;;;1.83;1.10;;;;;;;19.81;52.62;92690.41;5010787;28;20087;-85
2022/09/17 07:50:09;;;;;;;1.65;1.23;;;;;;;19.81;52.67;92684.94;4993870;28;20491;-85
2022/09/17 07:52:34;;;;;;;2.90;1.17;;;;;;;19.80;52.43;92694.44;4988923;28;20045;-85
2022/09/17 07:55:00;;;;;;;2.63;1.08;;;;;;;19.81;53.13;92689.69;4974837;28;20038;-84
2022/09/17 07:57:25;;;;;;;1.88;1.30;;;;;;;19.83;52.59;92678.91;4980374;28;20586;-86
2022/09/17 07:59:51;;;;;;;2.75;1.20;;;;;;;19.80;52.96;92694.44;4977804;28;20042;-85
2022/09/17 08:02:16;;;;;;;1.90;1.20;;;;;;;19.82;52.66;92689.16;5006707;28;20560;-87
2022/09/17 08:04:44;;;;;;;1.95;1.10;;;;;;;19.83;52.47;92693.34;5010473;28;20048;-86
2022/09/17 08:07:11;;;;;;;1.77;0.88;;;;;;;19.81;52.81;92686.94;4993667;28;20043;-85
2022/09/17 08:09:37;;;;;;;1.90;1.20;;;;;;;19.81;52.72;92701.38;5006897;28;20541;-85
2022/09/17 08:12:02;;;;;;;3.28;1.17;;;;;;;19.80;52.49;92710.16;4990298;28;20042;-86
2022/09/17 08:14:28;;;;;;;1.95;1.40;;;;;;;19.81;52.39;92731.56;4966274;28;20068;-85
2022/09/17 08:16:53;;;;;;;4.57;1.02;;;;;;;19.81;52.81;92745.28;5009598;28;20111;-85
2022/09/17 08:19:19;;;;;;;3.17;1.20;;;;;;;19.80;52.76;92754.78;4993928;28;20037;-85
2022/09/17 08:21:44;;;;;;;2.97;1.17;;;;;;;19.81;52.28;92755.50;4994168;28;20042;-86
2022/09/17 08:24:10;;;;;;;1.58;1.08;;;;;;;19.81;52.38;92753.50;5007273;28;20041;-85
2022/09/17 08:26:35;;;;;;;3.38;1.23;;;;;;;19.83;52.52;92733.75;5009079;28;20030;-85
2022/09/17 08:29:01;;;;;;;2.30;1.25;;;;;;;19.80;52.43;92727.34;4993038;28;20049;-85
2022/09/17 08:31:28;;;;;;;1.73;1.10;;;;;;;19.81;52.42;92720.59;4980593;28;20045;-85
2022/09/17 08:33:54;;;;;;;1.00;0.90;;;;;;;19.80;52.54;92718.38;4992829;28;20116;-86
2022/09/17 08:36:21;;;;;;;2.08;1.15;;;;;;;19.83;52.71;92726.28;4975464;28;20531;-85
2022/09/17 08:38:48;;;;;;;1.77;1.13;;;;;;;19.80;52.46;92732.81;4993903;28;20026;-85
2022/09/17 08:41:46;;;;;;;2.50;1.30;;;;;;;19.81;52.45;92723.31;4990098;28;20045;-87
2022/09/17 08:44:25;;;;;;;2.20;1.27;;;;;;;19.82;52.34;92724.06;4994331;28;20037;-84
2022/09/17 08:46:57;;;;;;;2.50;1.10;;;;;;;19.81;52.46;92726.06;4993506;28;20123;-86
2022/09/17 08:49:28;;;;;;;1.83;1.27;;;;;;;19.82;52.52;92718.56;4977535;28;20037;-85
2022/09/17 08:52:12;;;;;;;3.17;1.10;;;;;;;19.80;52.36;92730.09;4976078;28;20038;-87
2022/09/17 08:54:56;;;;;;;4.43;1.42;;;;;;;19.81;52.34;92722.59;5023342;28;20040;-85
2022/09/17 08:57:45;;;;;;;1.77;1.10;;;;;;;19.81;52.49;92701.38;5012393;28;20077;-85
2022/09/17 09:00:21;;;;;;;1.90;1.20;;;;;;;19.81;52.68;92689.69;5000034;28;20518;-85
2022/09/17 09:03:13;;;;;;;1.60;1.10;;;;;;;19.82;52.55;92680.19;4980811;28;20113;-86
2022/09/17 09:05:39;;;;;;;3.28;1.20;;;;;;;19.84;52.20;92683.13;5009746;28;20033;-86
2022/09/17 09:08:17;;;;;;;3.63;1.40;;;;;;;19.81;52.33;92687.69;5005407;28;20167;-85
2022/09/17 09:10:50;;;;;;;2.58;1.20;;;;;;;19.82;52.26;92702.13;4976981;28;20529;-86
2022/09/17 09:13:16;;;;;;;1.95;1.00;;;;;;;19.82;52.50;92721.31;4993293;28;20049;-85
2022/09/17 09:15:48;;;;;;;1.60;1.10;;;;;;;19.83;52.28;92737.25;5009227;28;20026;-85
2022/09/17 09:18:26;;;;;;;2.35;1.40;;;;;;;19.84;52.47;92740.72;4975857;28;20041;-85
2022/09/17 09:20:54;;;;;;;1.55;1.15;;;;;;;19.82;52.35;92737.78;4993244;28;20514;-85
2022/09/17 09:23:34;;;;;;;1.98;0.95;;;;;;;19.82;52.14;92743.25;4997631;28;20179;-85
2022/09/17 09:26:09;;;;;;;1.77;1.10;;;;;;;19.77;50.79;92742.13;4993681;28;20038;-86
2022/09/17 09:28:43;;;;;;;3.45;1.65;;;;;;;19.80;50.78;92740.31;4977545;28;20033;-88
2022/09/17 09:31:20;;;;;;;4.15;1.38;;;;;;;19.74;50.59;92745.19;4990855;28;20434;-84
2022/09/17 09:33:46;;;;;;;3.50;1.63;;;;;;;19.74;49.28;92748.69;4991048;28;20065;-86
2022/09/17 09:36:13;;;;;;;2.38;1.52;;;;;;;19.74;49.47;92747.94;4989160;28;20271;-86
2022/09/17 09:38:56;;;;;;;6.40;3.45;;;;;;;19.75;49.06;92733.69;4983505;28;20125;-86
2022/09/17 09:41:30;;;;;;;12.38;4.93;;;;;;;19.72;49.54;92729.28;4976196;28;20037;-86
2022/09/17 09:44:03;;;;;;;10.80;4.22;;;;;;;19.71;49.17;92729.81;4976538;28;20038;-85
2022/09/17 09:47:06;;;;;;;11.57;3.70;;;;;;;19.72;48.60;92721.06;4991955;28;20410;-84
2022/09/17 09:49:52;;;;;;;7.72;3.05;;;;;;;19.73;48.23;92730.75;5012456;28;20758;-87
2022/09/17 09:52:36;;;;;;;13.77;5.10;;;;;;;19.74;48.30;92732.22;5026001;28;20095;-84
2022/09/17 09:55:38;;;;;;;4.90;2.25;;;;;;;19.74;48.64;92726.00;5009278;28;20534;-85
2022/09/17 09:58:07;;;;;;;4.50;2.85;;;;;;;19.74;48.95;92724.00;5023544;28;20057;-85
2022/09/17 10:00:38;;;;;;;9.13;2.88;;;;;;;19.75;48.52;92711.75;4998587;28;20035;-85
2022/09/17 10:03:08;;;;;;;6.40;2.42;;;;;;;19.73;48.36;92717.03;4992211;28;20026;-85
2022/09/17 10:05:34;;;;;;;6.07;2.70;;;;;;;19.76;47.87;92709.75;5009146;28;20056;-85
2022/09/17 10:08:08;;;;;;;7.63;2.50;;;;;;;19.74;47.84;92715.75;4992456;28;20209;-85
2022/09/17 10:10:34;;;;;;;3.83;2.08;;;;;;;19.75;48.58;92719.25;4993215;28;20042;-86
2022/09/17 10:13:04;;;;;;;8.25;2.78;;;;;;;19.73;48.65;92716.31;4976109;28;20407;-85
2022/09/17 10:15:29;;;;;;;7.60;2.97;;;;;;;19.75;48.79;92714.50;4991302;28;20129;-85
2022/09/17 10:18:12;;;;;;;5.72;2.50;;;;;;;19.74;48.88;92729.47;5008415;28;20033;-86
2022/09/17 10:20:49;;;;;;;3.50;1.85;;;;;;;19.75;48.76;92736.44;5009176;28;20036;-85
2022/09/17 10:42:12;;;;;;;4.07;1.60;;;;;;;19.48;51.15;92724.84;5086701;27;20386;-89
2022/09/17 10:44:38;;;;;;;5.30;2.10;;;;;;;19.52;50.83;92728.00;5087893;28;20769;-86
2022/09/17 10:47:03;;;;;;;4.47;2.45;;;;;;;19.55;51.29;92728.94;5051601;28;20032;-86
2022/09/17 10:49:38;;;;;;;4.80;2.30;;;;;;;19.60;51.13;92725.34;5100086;28;20127;-87
2022/09/17 10:52:09;;;;;;;5.10;2.15;;;;;;;19.61;51.03;92724.06;5102307;28;20036;-87
2022/09/17 10:54:34;;;;;;;3.38;1.80;;;;;;;19.65;51.14;92716.25;5086691;28;20081;-87
2022/09/17 10:57:00;;;;;;;4.28;2.15;;;;;;;19.65;51.03;92705.28;5104600;27;20044;-87
2022/09/17 10:59:31;;;;;;;2.75;2.15;;;;;;;19.68;50.96;92723.41;5101449;28;20051;-88
2022/09/17 11:02:41;;;;;;;3.22;2.05;;;;;;;19.69;51.22;92732.38;5102975;28;20150;-87
2022/09/17 11:05:39;;;;;;;2.03;1.75;;;;;;;19.70;50.98;92729.06;5082029;27;20048;-87
2022/09/17 11:08:10;;;;;;;3.88;1.98;;;;;;;19.71;51.05;92730.53;5045614;28;20495;-86
2022/09/17 11:10:50;;;;;;;5.20;2.60;;;;;;;19.71;51.19;92725.06;5073020;28;20037;-87
2022/09/17 11:13:27;;;;;;;5.20;2.10;;;;;;;19.72;50.98;92723.78;5061627;28;20411;-87
2022/09/17 11:16:17;;;;;;;3.13;1.63;;;;;;;19.73;50.88;92725.25;5077948;28;20040;-87
2022/09/17 11:18:44;;;;;;;3.65;1.90;;;;;;;19.73;51.16;92725.25;5086674;28;20063;-88
2022/09/17 11:21:31;;;;;;;3.55;1.67;;;;;;;19.72;51.22;92721.06;5082916;28;20044;-87
2022/09/17 11:24:16;;;;;;;3.15;1.77;;;;;;;19.72;50.99;92706.59;5064003;28;20074;-86
2022/09/17 11:26:55;;;;;;;4.72;2.10;;;;;;;19.73;51.17;92710.81;5102282;28;20046;-87
2022/09/17 11:29:45;;;;;;;3.20;1.85;;;;;;;19.76;50.93;92712.50;5091457;28;20049;-87
2022/09/17 11:32:14;;;;;;;2.47;1.63;;;;;;;19.76;51.16;92694.03;5096346;28;20041;-87
2022/09/17 11:35:08;;;;;;;3.42;1.70;;;;;;;19.75;50.90;92698.03;5083465;28;20040;-87
2022/09/17 11:37:40;;;;;;;3.75;1.80;;;;;;;19.73;51.21;92689.63;5102067;28;20538;-87
2022/09/17 11:40:14;;;;;;;3.67;1.67;;;;;;;19.73;51.09;92681.38;5099382;28;20507;-86
2022/09/17 11:42:49;;;;;;;4.15;2.15;;;;;;;19.74;50.97;92687.59;5085600;28;20039;-86
2022/09/17 11:45:19;;;;;;;3.42;1.65;;;;;;;19.76;51.20;92685.06;5085206;28;20339;-85
2022/09/17 11:47:49;;;;;;;3.10;1.50;;;;;;;19.77;51.25;92690.00;5068215;28;20044;-86
2022/09/17 11:50:27;;;;;;;4.13;1.73;;;;;;;19.77;51.12;92695.50;5083922;28;20040;-87
2022/09/17 11:53:17;;;;;;;4.57;1.83;;;;;;;19.79;51.13;92686.75;5075106;28;20033;-87
2022/09/17 11:55:49;;;;;;;46.08;6.78;;;;;;;19.76;51.27;92674.09;5050569;28;20351;-87
2022/09/17 11:58:48;;;;;;;16.13;3.97;;;;;;;19.78;51.22;92674.28;5040657;28;20544;-86
2022/09/17 12:01:25;;;;;;;24.88;5.05;;;;;;;19.76;51.29;92674.84;5071982;28;20044;-87
2022/09/17 12:04:01;;;;;;;31.60;6.95;;;;;;;19.78;51.15;92680.50;5088449;28;20067;-86
2022/09/17 12:06:35;;;;;;;39.30;7.13;;;;;;;19.76;51.27;92676.84;5071361;28;20036;-87
2022/09/17 12:09:09;;;;;;;33.72;6.32;;;;;;;19.77;51.24;92684.53;5072012;28;20086;-87